createdAt,value
2023-08-27T00:01:26.244Z,3.90
2023-08-27T00:02:27.142Z,4.30
2023-08-27T00:03:27.855Z,4.00
2023-08-27T00:04:27.112Z,4.20
2023-08-27T00:05:27.113Z,4.00
2023-08-27T00:06:27.133Z,4.50
2023-08-27T00:07:27.084Z,4.60
2023-08-27T00:08:27.071Z,4.10
2023-08-27T00:09:27.045Z,4.80
2023-08-27T00:10:27.073Z,4.60
2023-08-27T00:11:27.048Z,4.50
2023-08-27T00:12:27.035Z,4.90
2023-08-27T00:13:26.990Z,5.00
2023-08-27T00:14:26.984Z,4.90
2023-08-27T00:15:26.988Z,5.30
2023-08-27T00:16:27.025Z,5.70
2023-08-27T00:17:26.951Z,5.50
2023-08-27T00:18:26.994Z,5.60
2023-08-27T00:19:26.912Z,5.40
2023-08-27T00:20:26.919Z,5.50
2023-08-27T00:21:27.770Z,5.50
2023-08-27T00:22:26.878Z,5.00
2023-08-27T00:23:26.870Z,5.00
2023-08-27T00:24:26.864Z,5.30
2023-08-27T00:25:26.835Z,5.10
2023-08-27T00:26:26.839Z,4.80
2023-08-27T00:27:26.824Z,4.60
2023-08-27T00:28:26.818Z,5.00
2023-08-27T00:29:26.803Z,4.60
2023-08-27T00:30:26.792Z,4.80
2023-08-27T00:31:26.796Z,4.60
2023-08-27T00:32:26.853Z,4.40
2023-08-27T00:33:26.773Z,4.10
2023-08-27T00:34:26.728Z,4.20
2023-08-27T00:35:26.725Z,4.10
2023-08-27T00:36:26.729Z,4.10
2023-08-27T00:37:26.715Z,3.80
2023-08-27T00:38:26.691Z,3.90
2023-08-27T00:39:26.655Z,3.50
2023-08-27T00:40:26.645Z,3.50
2023-08-27T00:41:26.658Z,3.60
2023-08-27T00:42:26.636Z,3.50
2023-08-27T00:43:26.623Z,3.40
2023-08-27T00:44:26.611Z,3.50
2023-08-27T00:45:26.612Z,3.50
2023-08-27T00:46:26.589Z,3.40
2023-08-27T00:47:26.617Z,3.20
2023-08-27T00:48:26.573Z,3.30
2023-08-27T00:49:26.587Z,3.50
2023-08-27T00:50:26.872Z,3.10
2023-08-27T00:51:26.523Z,3.40
2023-08-27T00:52:26.522Z,3.40
2023-08-27T00:53:26.514Z,3.30
2023-08-27T00:54:26.509Z,3.40
2023-08-27T00:55:26.457Z,3.60
2023-08-27T00:56:26.496Z,3.20
2023-08-27T00:57:26.442Z,3.00
2023-08-27T00:58:26.450Z,3.40
2023-08-27T00:59:26.441Z,3.60
2023-08-27T01:00:26.414Z,3.10
2023-08-27T01:01:26.425Z,3.40
2023-08-27T01:02:26.472Z,3.30
2023-08-27T01:03:26.457Z,3.30
2023-08-27T01:04:26.368Z,3.30
2023-08-27T01:05:26.339Z,3.00
2023-08-27T01:06:26.327Z,3.30
2023-08-27T01:07:26.309Z,3.50
2023-08-27T01:08:26.300Z,3.60
2023-08-27T01:09:26.318Z,3.40
2023-08-27T01:10:26.281Z,3.30
2023-08-27T01:11:26.279Z,3.20
2023-08-27T01:12:26.277Z,3.20
2023-08-27T01:13:26.238Z,3.40
2023-08-27T01:14:26.247Z,3.30
2023-08-27T01:15:26.281Z,3.90
2023-08-27T01:16:26.188Z,3.50
2023-08-27T01:17:26.228Z,3.40
2023-08-27T01:18:26.173Z,3.50
2023-08-27T01:19:26.172Z,3.80
2023-08-27T01:20:26.143Z,3.50
2023-08-27T01:21:26.150Z,3.70
2023-08-27T01:22:26.114Z,3.80
2023-08-27T01:23:26.129Z,3.70
2023-08-27T01:24:26.110Z,3.50
2023-08-27T01:25:26.098Z,3.40
2023-08-27T01:26:26.067Z,3.30
2023-08-27T01:27:26.054Z,3.60
2023-08-27T01:28:26.045Z,3.30
2023-08-27T01:29:26.054Z,3.30
2023-08-27T01:30:26.076Z,3.20
2023-08-27T01:31:26.029Z,3.60
2023-08-27T01:32:26.091Z,3.30
2023-08-27T01:33:25.998Z,3.40
2023-08-27T01:34:25.955Z,3.60
2023-08-27T01:35:25.957Z,3.10
2023-08-27T01:36:25.954Z,3.20
2023-08-27T01:37:25.937Z,3.30
2023-08-27T01:38:25.939Z,3.40
2023-08-27T01:39:25.916Z,3.10
2023-08-27T01:40:25.906Z,3.30
2023-08-27T01:41:25.948Z,3.50
2023-08-27T01:42:25.881Z,3.40
2023-08-27T01:43:25.852Z,3.60
2023-08-27T01:44:25.872Z,3.40
2023-08-27T01:45:25.858Z,3.20
2023-08-27T01:46:25.863Z,3.60
2023-08-27T01:47:25.877Z,3.30
2023-08-27T01:48:25.787Z,3.30
2023-08-27T01:49:25.780Z,3.30
2023-08-27T01:50:25.768Z,3.50
2023-08-27T01:51:25.796Z,3.30
2023-08-27T01:52:25.775Z,3.60
2023-08-27T01:53:25.731Z,3.60
2023-08-27T01:54:25.768Z,3.00
2023-08-27T01:55:25.711Z,3.40
2023-08-27T01:56:25.685Z,3.20
2023-08-27T01:57:25.709Z,3.30
2023-08-27T01:58:25.668Z,3.50
2023-08-27T01:59:25.652Z,3.30
2023-08-27T02:00:25.783Z,3.60
2023-08-27T02:01:25.670Z,3.40
2023-08-27T02:02:25.753Z,3.40
2023-08-27T02:03:25.685Z,3.30
2023-08-27T02:04:25.588Z,3.50
2023-08-27T02:05:25.577Z,3.40
2023-08-27T02:06:25.579Z,3.50
2023-08-27T02:07:25.577Z,3.30
2023-08-27T02:08:25.539Z,3.00
2023-08-27T02:09:25.520Z,3.40
2023-08-27T02:10:25.513Z,3.30
2023-08-27T02:11:25.533Z,3.20
2023-08-27T02:12:25.535Z,3.40
2023-08-27T02:13:25.512Z,3.40
2023-08-27T02:14:25.449Z,3.50
2023-08-27T02:15:25.490Z,3.30
2023-08-27T02:16:25.501Z,3.50
2023-08-27T02:17:25.463Z,3.40
2023-08-27T02:18:25.428Z,3.10
2023-08-27T02:19:25.410Z,3.40
2023-08-27T02:20:25.386Z,3.60
2023-08-27T02:21:25.383Z,3.30
2023-08-27T02:22:25.379Z,3.30
2023-08-27T02:23:25.341Z,2.90
2023-08-27T02:24:25.359Z,3.20
2023-08-27T02:25:25.388Z,3.30
2023-08-27T02:26:25.305Z,3.10
2023-08-27T02:27:25.312Z,3.40
2023-08-27T02:28:25.297Z,3.30
2023-08-27T02:29:25.322Z,3.50
2023-08-27T02:30:25.277Z,3.70
2023-08-27T02:31:25.256Z,3.30
2023-08-27T02:32:25.373Z,3.80
2023-08-27T02:33:25.209Z,3.30
2023-08-27T02:34:25.213Z,3.40
2023-08-27T02:35:25.218Z,3.10
2023-08-27T02:36:25.201Z,3.20
2023-08-27T02:37:25.170Z,3.40
2023-08-27T02:38:25.148Z,3.10
2023-08-27T02:39:25.193Z,3.10
2023-08-27T02:40:25.144Z,3.20
2023-08-27T02:41:25.134Z,3.10
2023-08-27T02:42:25.135Z,2.80
2023-08-27T02:43:25.100Z,3.20
2023-08-27T02:44:25.113Z,3.20
2023-08-27T02:45:25.078Z,3.50
2023-08-27T02:46:25.115Z,3.40
2023-08-27T02:47:25.079Z,3.30
2023-08-27T02:48:25.068Z,3.60
2023-08-27T02:49:25.030Z,3.10
2023-08-27T02:50:25.000Z,3.50
2023-08-27T02:51:25.000Z,3.00
2023-08-27T02:52:24.992Z,3.30
2023-08-27T02:53:24.993Z,2.70
2023-08-27T02:54:24.976Z,3.20
2023-08-27T02:55:24.935Z,3.20
2023-08-27T02:56:24.912Z,2.60
2023-08-27T02:57:24.944Z,2.90
2023-08-27T02:58:24.916Z,2.90
2023-08-27T02:59:24.896Z,2.90
2023-08-27T03:00:24.902Z,3.20
2023-08-27T03:01:24.891Z,2.70
2023-08-27T03:02:24.850Z,2.70
2023-08-27T03:03:24.913Z,2.70
2023-08-27T03:04:25.474Z,2.60
2023-08-27T03:05:24.895Z,2.70
2023-08-27T03:06:24.812Z,2.70
2023-08-27T03:07:24.840Z,2.90
2023-08-27T03:08:24.771Z,2.80
2023-08-27T03:09:24.759Z,3.00
2023-08-27T03:10:24.749Z,2.50
2023-08-27T03:11:24.753Z,2.50
2023-08-27T03:12:24.763Z,2.90
2023-08-27T03:13:24.720Z,2.90
2023-08-27T03:14:24.725Z,2.70
2023-08-27T03:15:24.680Z,2.70
2023-08-27T03:16:24.711Z,3.00
2023-08-27T03:17:24.699Z,2.90
2023-08-27T03:18:24.667Z,2.90
2023-08-27T03:19:24.636Z,3.00
2023-08-27T03:20:24.634Z,2.90
2023-08-27T03:21:34.671Z,2.80
2023-08-27T03:22:24.607Z,3.00
2023-08-27T03:23:35.121Z,2.80
2023-08-27T03:24:24.583Z,2.80
2023-08-27T03:25:24.705Z,2.70
2023-08-27T03:26:24.560Z,2.70
2023-08-27T03:27:24.533Z,2.90
2023-08-27T03:28:24.536Z,2.80
2023-08-27T03:29:24.518Z,3.10
2023-08-27T03:30:24.495Z,2.60
2023-08-27T03:31:31.477Z,2.40
2023-08-27T03:32:24.485Z,2.60
2023-08-27T03:33:24.463Z,2.70
2023-08-27T03:34:34.535Z,2.70
2023-08-27T03:35:30.990Z,2.60
2023-08-27T03:36:34.985Z,2.70
2023-08-27T03:37:24.418Z,2.40
2023-08-27T03:38:24.402Z,2.80
2023-08-27T03:39:24.401Z,2.40
2023-08-27T03:40:24.396Z,2.60
2023-08-27T03:41:24.356Z,2.70
2023-08-27T03:42:24.341Z,2.70
2023-08-27T03:43:24.322Z,2.90
2023-08-27T03:44:24.339Z,2.50
2023-08-27T03:45:24.306Z,2.60
2023-08-27T03:46:24.588Z,2.50
2023-08-27T03:47:24.300Z,2.50
2023-08-27T03:48:24.284Z,2.60
2023-08-27T03:49:24.300Z,2.60
2023-08-27T03:50:24.288Z,2.60
2023-08-27T03:51:24.248Z,2.90
2023-08-27T03:52:24.238Z,2.50
2023-08-27T03:53:24.208Z,2.50
2023-08-27T03:54:24.124Z,2.60
2023-08-27T03:55:24.185Z,2.50
2023-08-27T03:56:24.169Z,2.40
2023-08-27T03:57:24.108Z,2.40
2023-08-27T03:58:24.097Z,2.30
2023-08-27T03:59:24.101Z,2.40
2023-08-27T04:00:24.063Z,2.60
2023-08-27T04:01:24.085Z,2.50
2023-08-27T04:02:24.041Z,2.40
2023-08-27T04:03:24.129Z,2.40
2023-08-27T04:04:24.026Z,2.40
2023-08-27T04:05:23.993Z,2.30
2023-08-27T04:06:24.007Z,2.20
2023-08-27T04:07:23.976Z,2.40
2023-08-27T04:08:23.960Z,2.20
2023-08-27T04:09:23.939Z,2.50
2023-08-27T04:10:23.936Z,2.50
2023-08-27T04:11:23.914Z,2.40
2023-08-27T04:12:23.920Z,2.40
2023-08-27T04:13:23.913Z,2.20
2023-08-27T04:14:23.880Z,2.30
2023-08-27T04:15:23.876Z,1.90
2023-08-27T04:16:23.913Z,2.30
2023-08-27T04:17:23.857Z,2.20
2023-08-27T04:18:23.835Z,2.20
2023-08-27T04:19:24.065Z,2.10
2023-08-27T04:20:23.823Z,2.30
2023-08-27T04:21:23.804Z,2.20
2023-08-27T04:22:23.834Z,2.10
2023-08-27T04:23:23.773Z,2.20
2023-08-27T04:24:23.785Z,2.10
2023-08-27T04:25:23.782Z,2.20
2023-08-27T04:26:23.758Z,2.00
2023-08-27T04:27:23.747Z,2.10
2023-08-27T04:28:23.715Z,1.90
2023-08-27T04:29:23.706Z,2.10
2023-08-27T04:30:23.709Z,1.90
2023-08-27T04:31:23.739Z,1.90
2023-08-27T04:32:23.662Z,2.20
2023-08-27T04:33:23.638Z,1.90
2023-08-27T04:34:23.648Z,2.30
2023-08-27T04:35:23.619Z,2.10
2023-08-27T04:36:23.600Z,2.00
2023-08-27T04:37:23.597Z,2.30
2023-08-27T04:38:23.573Z,2.10
2023-08-27T04:39:23.569Z,2.30
2023-08-27T04:40:23.576Z,2.30
2023-08-27T04:41:23.583Z,2.20
2023-08-27T04:42:23.514Z,2.10
2023-08-27T04:43:23.535Z,2.30
2023-08-27T04:44:23.496Z,2.20
2023-08-27T04:45:23.529Z,2.00
2023-08-27T04:46:23.544Z,2.00
2023-08-27T04:47:23.478Z,2.10
2023-08-27T04:48:23.450Z,2.30
2023-08-27T04:49:23.448Z,2.10
2023-08-27T04:50:23.483Z,2.00
2023-08-27T04:51:23.409Z,2.10
2023-08-27T04:52:31.931Z,2.30
2023-08-27T04:53:23.395Z,1.80
2023-08-27T04:54:23.386Z,2.10
2023-08-27T04:55:23.375Z,2.00
2023-08-27T04:56:23.354Z,2.00
2023-08-27T04:57:23.362Z,1.80
2023-08-27T04:58:23.338Z,1.70
2023-08-27T04:59:23.307Z,2.00
2023-08-27T05:00:23.306Z,2.00
2023-08-27T05:01:23.370Z,2.00
2023-08-27T05:02:23.308Z,1.80
2023-08-27T05:03:23.300Z,1.90
2023-08-27T05:04:23.260Z,1.80
2023-08-27T05:05:23.239Z,1.90
2023-08-27T05:06:23.222Z,2.00
2023-08-27T05:07:23.221Z,1.80
2023-08-27T05:08:23.202Z,1.90
2023-08-27T05:09:23.207Z,1.70
2023-08-27T05:10:23.199Z,2.00
2023-08-27T05:11:23.156Z,1.70
2023-08-27T05:12:23.140Z,2.00
2023-08-27T05:13:23.140Z,1.80
2023-08-27T05:14:23.195Z,2.00
2023-08-27T05:15:23.104Z,1.90
2023-08-27T05:16:23.143Z,1.80
2023-08-27T05:17:23.089Z,1.90
2023-08-27T05:18:23.157Z,1.60
2023-08-27T05:19:23.098Z,1.80
2023-08-27T05:20:23.041Z,1.90
2023-08-27T05:21:23.038Z,1.60
2023-08-27T05:22:23.059Z,1.80
2023-08-27T05:23:23.006Z,1.70
2023-08-27T05:24:23.003Z,1.60
2023-08-27T05:25:22.977Z,1.80
2023-08-27T05:26:22.984Z,1.80
2023-08-27T05:27:23.004Z,1.70
2023-08-27T05:28:23.000Z,1.40
2023-08-27T05:29:22.932Z,1.60
2023-08-27T05:30:22.923Z,1.60
2023-08-27T05:31:22.944Z,1.70
2023-08-27T05:32:22.909Z,1.50
2023-08-27T05:33:22.887Z,1.40
2023-08-27T05:34:22.911Z,1.70
2023-08-27T05:35:22.845Z,1.70
2023-08-27T05:36:22.845Z,1.60
2023-08-27T05:37:22.849Z,1.60
2023-08-27T05:38:22.831Z,1.50
2023-08-27T05:39:22.800Z,1.50
2023-08-27T05:40:22.822Z,1.40
2023-08-27T05:41:22.801Z,1.60
2023-08-27T05:42:22.781Z,1.60
2023-08-27T05:43:22.747Z,1.50
2023-08-27T05:44:22.790Z,1.50
2023-08-27T05:45:22.733Z,2.40
2023-08-27T05:46:22.760Z,1.50
2023-08-27T05:47:22.835Z,1.50
2023-08-27T05:48:22.736Z,1.60
2023-08-27T05:49:22.695Z,1.30
2023-08-27T05:50:22.681Z,1.30
2023-08-27T05:51:22.653Z,1.60
2023-08-27T05:52:22.637Z,1.70
2023-08-27T05:53:22.619Z,1.50
2023-08-27T05:54:22.630Z,1.70
2023-08-27T05:55:22.642Z,1.90
2023-08-27T05:56:22.589Z,1.80
2023-08-27T05:57:22.584Z,1.70
2023-08-27T05:58:22.575Z,1.80
2023-08-27T05:59:22.590Z,1.80
2023-08-27T06:00:22.546Z,1.60
2023-08-27T06:01:22.526Z,1.80
2023-08-27T06:02:22.538Z,1.70
2023-08-27T06:03:22.631Z,1.90
2023-08-27T06:04:22.499Z,1.80
2023-08-27T06:05:22.474Z,1.80
2023-08-27T06:06:22.450Z,1.80
2023-08-27T06:07:22.455Z,1.90
2023-08-27T06:08:22.441Z,2.00
2023-08-27T06:09:22.463Z,1.90
2023-08-27T06:10:22.434Z,1.80
2023-08-27T06:11:22.499Z,1.90
2023-08-27T06:12:22.389Z,2.00
2023-08-27T06:13:22.377Z,1.80
2023-08-27T06:14:22.364Z,2.20
2023-08-27T06:15:22.359Z,2.10
2023-08-27T06:16:22.416Z,2.40
2023-08-27T06:17:22.331Z,2.30
2023-08-27T06:18:23.052Z,2.50
2023-08-27T06:19:22.362Z,2.50
2023-08-27T06:20:22.540Z,2.80
2023-08-27T06:21:22.267Z,2.60
2023-08-27T06:22:22.306Z,2.60
2023-08-27T06:23:22.477Z,2.60
2023-08-27T06:24:22.430Z,2.80
2023-08-27T06:25:22.224Z,2.50
2023-08-27T06:26:22.210Z,2.70
2023-08-27T06:27:22.915Z,2.60
2023-08-27T06:28:22.214Z,2.40
2023-08-27T06:29:22.178Z,2.60
2023-08-27T06:30:22.166Z,2.50
2023-08-27T06:31:24.527Z,2.60
2023-08-27T06:32:22.136Z,2.60
2023-08-27T06:33:22.166Z,2.50
2023-08-27T06:34:22.143Z,2.60
2023-08-27T06:35:22.090Z,2.40
2023-08-27T06:36:22.232Z,2.70
2023-08-27T06:37:22.068Z,2.30
2023-08-27T06:38:22.060Z,2.60
2023-08-27T06:39:22.055Z,2.70
2023-08-27T06:40:22.059Z,2.60
2023-08-27T06:41:22.029Z,2.70
2023-08-27T06:42:22.017Z,2.70
2023-08-27T06:43:22.016Z,3.10
2023-08-27T06:44:21.994Z,2.90
2023-08-27T06:45:21.974Z,3.10
2023-08-27T06:46:21.977Z,2.80
2023-08-27T06:47:21.952Z,2.70
2023-08-27T06:48:21.972Z,2.40
2023-08-27T06:49:22.028Z,2.50
2023-08-27T06:50:21.912Z,2.70
2023-08-27T06:51:21.917Z,2.60
2023-08-27T06:52:21.882Z,2.70
2023-08-27T06:53:21.902Z,2.90
2023-08-27T06:54:21.916Z,3.10
2023-08-27T06:55:21.836Z,3.00
2023-08-27T06:56:21.827Z,2.60
2023-08-27T06:57:21.825Z,2.80
2023-08-27T06:58:21.824Z,2.50
2023-08-27T06:59:21.792Z,3.20
2023-08-27T07:00:21.794Z,3.00
2023-08-27T07:01:21.844Z,2.80
2023-08-27T07:02:21.755Z,3.50
2023-08-27T07:03:21.752Z,3.60
2023-08-27T07:04:21.756Z,3.50
2023-08-27T07:05:21.731Z,3.20
2023-08-27T07:06:21.742Z,3.20
2023-08-27T07:07:21.694Z,3.10
2023-08-27T07:08:24.090Z,3.00
2023-08-27T07:09:21.657Z,3.10
2023-08-27T07:10:21.691Z,2.90
2023-08-27T07:11:21.644Z,3.10
2023-08-27T07:12:21.662Z,3.00
2023-08-27T07:13:21.604Z,2.70
2023-08-27T07:14:21.623Z,2.80
2023-08-27T07:15:21.600Z,2.90
2023-08-27T07:16:21.593Z,3.00
2023-08-27T07:17:21.801Z,3.20
2023-08-27T07:18:21.558Z,3.10
2023-08-27T07:19:21.536Z,3.20
2023-08-27T07:20:21.544Z,3.40
2023-08-27T07:21:21.506Z,3.50
2023-08-27T07:22:21.890Z,3.90
2023-08-27T07:23:21.490Z,3.70
2023-08-27T07:24:21.478Z,3.30
2023-08-27T07:25:21.476Z,3.70
2023-08-27T07:26:21.452Z,3.70
2023-08-27T07:27:21.476Z,3.50
2023-08-27T07:28:21.436Z,3.40
2023-08-27T07:29:21.446Z,3.30
2023-08-27T07:30:21.398Z,3.10
2023-08-27T07:31:21.412Z,3.00
2023-08-27T07:32:21.388Z,3.10
2023-08-27T07:33:21.369Z,3.00
2023-08-27T07:34:21.370Z,3.00
2023-08-27T07:35:21.328Z,3.00
2023-08-27T07:36:21.329Z,2.80
2023-08-27T07:37:21.309Z,2.80
2023-08-27T07:38:21.293Z,3.10
2023-08-27T07:39:21.309Z,3.10
2023-08-27T07:40:21.303Z,2.90
2023-08-27T07:41:21.248Z,3.30
2023-08-27T07:42:21.250Z,3.00
2023-08-27T07:43:21.244Z,3.30
2023-08-27T07:44:21.211Z,3.30
2023-08-27T07:45:21.203Z,3.50
2023-08-27T07:46:21.219Z,3.50
2023-08-27T07:47:21.188Z,3.40
2023-08-27T07:48:21.225Z,3.80
2023-08-27T07:49:21.158Z,3.60
2023-08-27T07:50:21.136Z,3.40
2023-08-27T07:51:21.135Z,3.60
2023-08-27T07:52:21.134Z,4.20
2023-08-27T07:53:21.114Z,3.80
2023-08-27T07:54:21.099Z,4.00
2023-08-27T07:55:21.099Z,3.80
2023-08-27T07:56:21.073Z,3.80
2023-08-27T07:57:31.155Z,4.00
2023-08-27T07:58:21.050Z,3.60
2023-08-27T07:59:21.029Z,4.00
2023-08-27T08:00:21.010Z,3.90
2023-08-27T08:01:21.020Z,3.70
2023-08-27T08:02:21.008Z,3.80
2023-08-27T08:03:21.048Z,4.20
2023-08-27T08:04:20.971Z,4.20
2023-08-27T08:05:20.954Z,4.00
2023-08-27T08:06:20.952Z,4.40
2023-08-27T08:07:20.924Z,3.80
2023-08-27T08:08:20.952Z,4.10
2023-08-27T08:09:20.918Z,4.00
2023-08-27T08:10:20.901Z,4.10
2023-08-27T08:11:20.905Z,4.30
2023-08-27T08:12:20.868Z,4.10
2023-08-27T08:13:20.857Z,4.30
2023-08-27T08:14:20.835Z,4.20
2023-08-27T08:15:20.860Z,4.00
2023-08-27T08:16:20.868Z,3.90
2023-08-27T08:17:26.275Z,3.90
2023-08-27T08:18:20.850Z,4.20
2023-08-27T08:19:20.788Z,4.10
2023-08-27T08:20:20.767Z,3.80
2023-08-27T08:21:20.760Z,4.20
2023-08-27T08:22:20.777Z,4.10
2023-08-27T08:23:20.743Z,4.00
2023-08-27T08:24:20.722Z,4.00
2023-08-27T08:25:20.711Z,4.10
2023-08-27T08:26:20.712Z,4.40
2023-08-27T08:27:20.686Z,4.10
2023-08-27T08:28:20.674Z,4.20
2023-08-27T08:29:20.691Z,4.00
2023-08-27T08:30:20.634Z,4.20
2023-08-27T08:31:20.653Z,4.20
2023-08-27T08:32:20.640Z,4.00
2023-08-27T08:33:20.650Z,4.30
2023-08-27T08:34:20.594Z,4.60
2023-08-27T08:35:20.567Z,4.10
2023-08-27T08:36:20.556Z,4.20
2023-08-27T08:37:20.556Z,4.30
2023-08-27T08:38:20.538Z,4.40
2023-08-27T08:39:20.532Z,4.40
2023-08-27T08:40:20.514Z,4.70
2023-08-27T08:41:20.491Z,4.30
2023-08-27T08:42:20.494Z,4.80
2023-08-27T08:43:20.469Z,4.70
2023-08-27T08:44:20.465Z,4.70
2023-08-27T08:45:20.473Z,6.00
2023-08-27T08:46:20.477Z,5.50
2023-08-27T08:47:20.426Z,5.80
2023-08-27T08:48:20.413Z,5.30
2023-08-27T08:49:20.388Z,5.20
2023-08-27T08:50:20.393Z,5.30
2023-08-27T08:51:20.387Z,5.50
2023-08-27T08:52:20.373Z,5.10
2023-08-27T08:53:20.342Z,5.10
2023-08-27T08:54:20.336Z,5.70
2023-08-27T08:55:20.336Z,4.90
2023-08-27T08:56:20.309Z,4.80
2023-08-27T08:57:20.325Z,4.80
2023-08-27T08:58:20.288Z,4.40
2023-08-27T08:59:20.271Z,5.30
2023-08-27T09:00:20.258Z,5.20
2023-08-27T09:01:20.304Z,5.30
2023-08-27T09:02:20.245Z,4.80
2023-08-27T09:03:20.227Z,4.80
2023-08-27T09:04:20.207Z,4.60
2023-08-27T09:05:20.287Z,5.00
2023-08-27T09:06:20.186Z,4.30
2023-08-27T09:07:20.178Z,4.40
2023-08-27T09:08:20.166Z,4.80
2023-08-27T09:09:20.154Z,5.00
2023-08-27T09:10:20.148Z,4.30
2023-08-27T09:11:20.125Z,4.30
2023-08-27T09:12:20.097Z,3.90
2023-08-27T09:13:20.094Z,3.60
2023-08-27T09:14:20.084Z,3.10
2023-08-27T09:15:20.103Z,3.10
2023-08-27T09:16:20.085Z,3.20
2023-08-27T09:17:20.057Z,3.00
2023-08-27T09:18:20.094Z,3.30
2023-08-27T09:19:20.050Z,2.80
2023-08-27T09:20:20.013Z,3.00
2023-08-27T09:21:20.046Z,2.90
2023-08-27T09:22:19.990Z,2.60
2023-08-27T09:23:20.003Z,2.70
2023-08-27T09:24:19.966Z,2.50
2023-08-27T09:25:19.981Z,3.40
2023-08-27T09:26:19.954Z,2.90
2023-08-27T09:27:19.943Z,2.80
2023-08-27T09:28:19.919Z,2.60
2023-08-27T09:29:19.891Z,2.50
2023-08-27T09:30:19.898Z,2.40
2023-08-27T09:31:19.903Z,2.20
2023-08-27T09:32:19.873Z,2.50
2023-08-27T09:33:19.920Z,2.50
2023-08-27T09:34:19.856Z,2.40
2023-08-27T09:35:19.824Z,2.10
2023-08-27T09:36:19.806Z,2.40
2023-08-27T09:37:19.807Z,2.30
2023-08-27T09:38:19.787Z,2.60
2023-08-27T09:39:19.787Z,2.60
2023-08-27T09:40:19.775Z,2.30
2023-08-27T09:41:19.775Z,2.40
2023-08-27T09:42:19.736Z,2.50
2023-08-27T09:43:19.713Z,2.50
2023-08-27T09:44:19.754Z,2.60
2023-08-27T09:45:19.728Z,2.70
2023-08-27T09:46:19.748Z,2.30
2023-08-27T09:47:19.680Z,2.40
2023-08-27T09:48:19.695Z,2.30
2023-08-27T09:49:19.681Z,2.50
2023-08-27T09:50:19.657Z,2.30
2023-08-27T09:51:19.672Z,2.20
2023-08-27T09:52:19.634Z,2.30
2023-08-27T09:53:19.820Z,2.00
2023-08-27T09:54:19.606Z,2.30
2023-08-27T09:55:19.585Z,2.00
2023-08-27T09:56:19.561Z,2.10
2023-08-27T09:57:19.566Z,2.20
2023-08-27T09:58:19.540Z,2.30
2023-08-27T09:59:19.533Z,2.30
2023-08-27T10:00:19.545Z,2.10
2023-08-27T10:01:19.565Z,2.10
2023-08-27T10:02:19.497Z,1.80
2023-08-27T10:03:19.577Z,1.80
2023-08-27T10:04:19.555Z,1.70
2023-08-27T10:05:19.445Z,2.10
2023-08-27T10:06:19.439Z,1.90
2023-08-27T10:07:19.449Z,1.80
2023-08-27T10:08:19.469Z,2.10
2023-08-27T10:09:19.405Z,1.70
2023-08-27T10:10:19.373Z,1.90
2023-08-27T10:11:19.380Z,2.00
2023-08-27T10:12:19.364Z,2.00
2023-08-27T10:13:19.405Z,1.70
2023-08-27T10:14:19.337Z,1.80
2023-08-27T10:15:19.361Z,1.70
2023-08-27T10:16:19.347Z,1.90
2023-08-27T10:17:19.300Z,1.80
2023-08-27T10:18:19.366Z,1.90
2023-08-27T10:19:19.269Z,1.90
2023-08-27T10:20:19.259Z,1.90
2023-08-27T10:21:19.307Z,2.20
2023-08-27T10:22:19.237Z,2.00
2023-08-27T10:23:19.241Z,2.10
2023-08-27T10:24:19.227Z,1.70
2023-08-27T10:25:19.292Z,1.90
2023-08-27T10:26:19.189Z,1.70
2023-08-27T10:27:19.197Z,1.60
2023-08-27T10:28:19.199Z,1.50
2023-08-27T10:29:19.201Z,1.50
2023-08-27T10:30:19.136Z,1.50
2023-08-27T10:31:19.186Z,1.60
2023-08-27T10:32:19.158Z,1.50
2023-08-27T10:33:19.106Z,1.60
2023-08-27T10:34:19.093Z,1.80
2023-08-27T10:35:19.105Z,1.90
2023-08-27T10:36:19.069Z,1.90
2023-08-27T10:37:19.048Z,2.10
2023-08-27T10:38:19.095Z,1.70
2023-08-27T10:39:19.029Z,1.90
2023-08-27T10:40:19.008Z,2.20
2023-08-27T10:41:19.006Z,2.00
2023-08-27T10:42:19.125Z,1.90
2023-08-27T10:43:19.024Z,1.90
2023-08-27T10:44:18.965Z,1.90
2023-08-27T10:45:18.990Z,2.00
2023-08-27T10:46:18.949Z,1.90
2023-08-27T10:47:19.116Z,2.20
2023-08-27T10:48:20.911Z,1.60
2023-08-27T10:49:18.922Z,1.90
2023-08-27T10:50:18.944Z,2.00
2023-08-27T10:51:18.898Z,1.70
2023-08-27T10:52:18.891Z,1.90
2023-08-27T10:53:18.886Z,2.10
2023-08-27T10:54:18.846Z,1.90
2023-08-27T10:55:18.867Z,2.00
2023-08-27T10:56:18.842Z,1.90
2023-08-27T10:57:18.814Z,1.90
2023-08-27T10:58:18.806Z,1.90
2023-08-27T10:59:18.777Z,2.00
2023-08-27T11:00:18.769Z,1.90
2023-08-27T11:01:18.782Z,1.60
2023-08-27T11:02:18.769Z,1.80
2023-08-27T11:03:18.791Z,1.60
2023-08-27T11:04:18.710Z,1.80
2023-08-27T11:05:18.713Z,1.50
2023-08-27T11:06:18.690Z,1.60
2023-08-27T11:07:18.847Z,2.00
2023-08-27T11:08:18.689Z,1.70
2023-08-27T11:09:22.985Z,1.90
2023-08-27T11:10:18.651Z,1.80
2023-08-27T11:11:18.630Z,1.90
2023-08-27T11:12:18.641Z,1.80
2023-08-27T11:13:18.599Z,2.00
2023-08-27T11:14:20.381Z,1.90
2023-08-27T11:15:18.606Z,1.90
2023-08-27T11:16:18.633Z,1.80
2023-08-27T11:17:18.553Z,1.50
2023-08-27T11:18:18.584Z,1.50
2023-08-27T11:19:18.564Z,1.70
2023-08-27T11:20:18.514Z,1.70
2023-08-27T11:21:18.522Z,1.70
2023-08-27T11:22:18.507Z,1.60
2023-08-27T11:23:18.576Z,1.30
2023-08-27T11:24:18.471Z,1.70
2023-08-27T11:25:18.454Z,1.40
2023-08-27T11:26:18.454Z,1.40
2023-08-27T11:27:18.450Z,1.40
2023-08-27T11:28:18.421Z,1.60
2023-08-27T11:29:18.402Z,1.60
2023-08-27T11:30:18.385Z,1.40
2023-08-27T11:31:18.421Z,1.50
2023-08-27T11:32:18.392Z,1.90
2023-08-27T11:33:18.369Z,1.80
2023-08-27T11:34:18.339Z,1.60
2023-08-27T11:35:18.340Z,1.70
2023-08-27T11:36:18.314Z,2.10
2023-08-27T11:37:19.237Z,1.60
2023-08-27T11:38:28.846Z,1.80
2023-08-27T11:39:18.305Z,1.70
2023-08-27T11:40:18.307Z,1.70
2023-08-27T11:41:18.251Z,1.70
2023-08-27T11:42:18.248Z,1.50
2023-08-27T11:43:18.252Z,1.70
2023-08-27T11:44:18.216Z,1.50
2023-08-27T11:45:28.786Z,1.60
2023-08-27T11:46:18.225Z,1.40
2023-08-27T11:47:18.184Z,1.50
2023-08-27T11:48:19.812Z,1.50
2023-08-27T11:49:18.152Z,1.50
2023-08-27T11:50:28.712Z,1.60
2023-08-27T11:51:28.660Z,1.50
2023-08-27T11:52:28.758Z,1.50
2023-08-27T11:53:25.932Z,1.40
2023-08-27T11:54:18.108Z,1.40
2023-08-27T11:55:28.636Z,1.90
2023-08-27T11:56:18.076Z,1.70
2023-08-27T11:57:18.073Z,1.70
2023-08-27T11:58:18.040Z,1.50
2023-08-27T11:59:18.045Z,1.60
2023-08-27T12:00:18.013Z,1.40
2023-08-27T12:01:18.035Z,1.60
2023-08-27T12:02:18.052Z,1.60
2023-08-27T12:03:17.979Z,1.70
2023-08-27T12:04:17.986Z,2.00
2023-08-27T12:05:17.974Z,1.40
2023-08-27T12:06:17.951Z,1.40
2023-08-27T12:07:17.964Z,1.40
2023-08-27T12:08:17.930Z,1.50
2023-08-27T12:09:17.906Z,1.60
2023-08-27T12:10:17.893Z,1.50
2023-08-27T12:11:17.894Z,1.70
2023-08-27T12:12:17.893Z,1.60
2023-08-27T12:13:17.863Z,1.70
2023-08-27T12:14:17.872Z,1.70
2023-08-27T12:15:17.848Z,1.40
2023-08-27T12:16:17.877Z,1.40
2023-08-27T12:17:17.813Z,1.50
2023-08-27T12:18:17.845Z,1.50
2023-08-27T12:19:17.811Z,1.60
2023-08-27T12:20:17.816Z,1.50
2023-08-27T12:21:17.762Z,1.40
2023-08-27T12:22:17.745Z,1.50
2023-08-27T12:23:17.765Z,1.50
2023-08-27T12:24:17.717Z,1.30
2023-08-27T12:25:17.739Z,1.30
2023-08-27T12:26:17.710Z,1.60
2023-08-27T12:27:17.733Z,1.80
2023-08-27T12:28:17.702Z,1.60
2023-08-27T12:29:17.666Z,1.40
2023-08-27T12:30:17.677Z,1.50
2023-08-27T12:31:17.667Z,1.50
2023-08-27T12:32:17.661Z,1.60
2023-08-27T12:33:17.616Z,1.40
2023-08-27T12:34:17.598Z,1.50
2023-08-27T12:35:17.578Z,1.40
2023-08-27T12:36:17.582Z,1.40
2023-08-27T12:37:17.562Z,1.50
2023-08-27T12:38:17.565Z,1.50
2023-08-27T12:39:17.552Z,1.80
2023-08-27T12:40:17.543Z,2.80
2023-08-27T12:41:17.536Z,1.40
2023-08-27T12:42:17.515Z,1.50
2023-08-27T12:43:17.715Z,1.60
2023-08-27T12:44:17.480Z,1.40
2023-08-27T12:45:17.470Z,1.40
2023-08-27T12:46:17.468Z,1.40
2023-08-27T12:47:17.450Z,1.60
2023-08-27T12:48:17.498Z,1.30
2023-08-27T12:49:17.427Z,1.30
2023-08-27T12:50:17.451Z,1.10
2023-08-27T12:51:17.398Z,1.30
2023-08-27T12:52:17.395Z,1.10
2023-08-27T12:53:33.158Z,1.30
2023-08-27T12:54:17.365Z,1.10
2023-08-27T12:55:17.337Z,1.30
2023-08-27T12:56:17.363Z,1.20
2023-08-27T12:57:17.329Z,1.40
2023-08-27T12:58:17.334Z,1.30
2023-08-27T12:59:17.290Z,1.40
2023-08-27T13:00:17.280Z,1.30
2023-08-27T13:01:17.271Z,1.30
2023-08-27T13:02:17.311Z,1.10
2023-08-27T13:03:17.356Z,1.10
2023-08-27T13:04:17.259Z,1.30
2023-08-27T13:05:17.239Z,1.20
2023-08-27T13:06:17.222Z,1.20
2023-08-27T13:07:17.192Z,1.20
2023-08-27T13:08:17.218Z,1.20
2023-08-27T13:09:17.178Z,1.10
2023-08-27T13:10:17.175Z,1.20
2023-08-27T13:11:17.188Z,1.30
2023-08-27T13:12:17.151Z,1.10
2023-08-27T13:13:17.149Z,1.20
2023-08-27T13:14:17.124Z,1.50
2023-08-27T13:15:17.122Z,1.50
2023-08-27T13:16:17.147Z,1.50
2023-08-27T13:17:17.076Z,2.10
2023-08-27T13:18:17.132Z,1.90
2023-08-27T13:19:17.128Z,1.30